ACA172 CYEG-CYYZ
Flight info
| Callsign | ACA172 |
|---|---|
| Flight time | 3h 24m |
| Altitude | 35000 |
| Route | RYLEY DCT TAGOT DCT MUTUR DCT KOBID DCT AGLIN DCT OTNIK BOXUM7 |
| Aircraft | A320/M-SDE3FGHIRWY/LB1 |
Departure
| Time | 2026-05-06 18:02 |
|---|---|
| Airport | Edmonton International Airport (CYEG) |
Arrival
| Time | 2026-05-06 21:27 |
|---|---|
| Airport | Toronto Pearson International Airport (CYYZ) |
| Time | Latitude | Longitude | Altitude | Speed | Heading |
|---|---|---|---|---|---|
| 2026-05-06 18:00 | 53.30679 | -113.59445 | 2320 ft | 4 kts | 213° |
| 2026-05-06 18:01 | 53.30649 | -113.59479 | 2319 ft | 6 kts | 216° |
| 2026-05-06 18:01 | 53.30614 | -113.59520 | 2320 ft | 5 kts | 203° |
| 2026-05-06 18:01 | 53.30582 | -113.59494 | 2320 ft | 5 kts | 135° |
| 2026-05-06 18:01 | 53.30517 | -113.59386 | 2322 ft | 36 kts | 134° |
| 2026-05-06 18:02 | 53.30176 | -113.58818 | 2332 ft | 99 kts | 135° |
| 2026-05-06 18:02 | 53.29559 | -113.57781 | 2354 ft | 152 kts | 134° |
| 2026-05-06 18:02 | 53.28757 | -113.56441 | 2714 ft | 167 kts | 136° |
| 2026-05-06 18:02 | 53.27936 | -113.55056 | 3314 ft | 170 kts | 136° |
| 2026-05-06 18:03 | 53.27112 | -113.53664 | 3936 ft | 171 kts | 136° |
| 2026-05-06 18:03 | 53.26260 | -113.52232 | 4337 ft | 178 kts | 136° |
| 2026-05-06 18:03 | 53.25354 | -113.50710 | 4612 ft | 192 kts | 136° |
| 2026-05-06 18:03 | 53.24387 | -113.49077 | 4893 ft | 207 kts | 133° |
| 2026-05-06 18:04 | 53.23714 | -113.46890 | 5144 ft | 225 kts | 98° |
| 2026-05-06 18:04 | 53.23759 | -113.44173 | 5359 ft | 246 kts | 84° |
| 2026-05-06 18:04 | 53.23976 | -113.41254 | 5690 ft | 263 kts | 83° |
| 2026-05-06 18:04 | 53.24188 | -113.38142 | 6058 ft | 278 kts | 84° |
| 2026-05-06 18:05 | 53.24362 | -113.34924 | 6649 ft | 284 kts | 85° |
| 2026-05-06 18:05 | 53.24507 | -113.31618 | 7335 ft | 287 kts | 85° |
| 2026-05-06 18:05 | 53.24633 | -113.28286 | 8000 ft | 291 kts | 85° |
| 2026-05-06 18:05 | 53.24749 | -113.24916 | 8660 ft | 294 kts | 84° |
| 2026-05-06 18:06 | 53.24859 | -113.21531 | 9310 ft | 298 kts | 84° |
| 2026-05-06 18:06 | 53.24968 | -113.18074 | 9955 ft | 302 kts | 83° |
| 2026-05-06 18:06 | 53.25079 | -113.14542 | 10451 ft | 312 kts | 83° |
| 2026-05-06 18:06 | 53.25196 | -113.10826 | 10751 ft | 328 kts | 83° |
| 2026-05-06 18:07 | 53.25315 | -113.06974 | 11079 ft | 342 kts | 83° |
| 2026-05-06 18:07 | 53.25432 | -113.02944 | 11647 ft | 347 kts | 83° |
| 2026-05-06 18:07 | 53.25544 | -112.98965 | 12281 ft | 350 kts | 83° |
| 2026-05-06 18:07 | 53.25655 | -112.94923 | 12883 ft | 352 kts | 82° |
| 2026-05-06 18:08 | 53.25769 | -112.90828 | 13451 ft | 356 kts | 82° |
| 2026-05-06 18:08 | 53.25884 | -112.86689 | 14021 ft | 359 kts | 82° |
| 2026-05-06 18:08 | 53.25999 | -112.82523 | 14576 ft | 362 kts | 82° |
| 2026-05-06 18:08 | 53.26111 | -112.78355 | 15112 ft | 365 kts | 82° |
| 2026-05-06 18:09 | 53.26226 | -112.74066 | 15630 ft | 369 kts | 82° |
| 2026-05-06 18:09 | 53.26338 | -112.69813 | 16150 ft | 372 kts | 82° |
| 2026-05-06 18:09 | 53.26450 | -112.65506 | 16641 ft | 375 kts | 82° |
| 2026-05-06 18:09 | 53.26561 | -112.61134 | 17120 ft | 379 kts | 82° |
| 2026-05-06 18:10 | 53.26671 | -112.56750 | 17596 ft | 381 kts | 82° |
| 2026-05-06 18:10 | 53.26779 | -112.52373 | 18053 ft | 384 kts | 82° |
| 2026-05-06 18:10 | 53.26887 | -112.47912 | 18517 ft | 386 kts | 82° |
| 2026-05-06 18:10 | 53.26994 | -112.43420 | 18976 ft | 389 kts | 82° |
| 2026-05-06 18:11 | 53.27102 | -112.38880 | 19411 ft | 391 kts | 82° |
| 2026-05-06 18:11 | 53.27145 | -112.35896 | 19699 ft | 395 kts | 85° |
| 2026-05-06 18:11 | 53.26817 | -112.29762 | 20237 ft | 405 kts | 95° |
| 2026-05-06 18:11 | 53.26180 | -112.25174 | 20643 ft | 411 kts | 101° |
| 2026-05-06 18:12 | 53.25411 | -112.20586 | 21033 ft | 414 kts | 102° |
| 2026-05-06 18:12 | 53.24610 | -112.15960 | 21438 ft | 417 kts | 102° |
| 2026-05-06 18:12 | 53.23802 | -112.11295 | 21851 ft | 418 kts | 101° |
| 2026-05-06 18:12 | 53.22994 | -112.06611 | 22256 ft | 421 kts | 101° |
| 2026-05-06 18:13 | 53.22198 | -112.01965 | 22618 ft | 423 kts | 101° |
| 2026-05-06 18:13 | 53.21385 | -111.97201 | 22971 ft | 427 kts | 101° |
| 2026-05-06 18:13 | 53.20578 | -111.92478 | 23306 ft | 430 kts | 101° |
| 2026-05-06 18:13 | 53.19755 | -111.87678 | 23656 ft | 432 kts | 101° |
| 2026-05-06 18:14 | 53.18934 | -111.82896 | 24013 ft | 434 kts | 101° |
| 2026-05-06 18:14 | 53.18101 | -111.78053 | 24374 ft | 436 kts | 101° |
| 2026-05-06 18:14 | 53.17264 | -111.73193 | 24702 ft | 439 kts | 101° |
| 2026-05-06 18:14 | 53.16417 | -111.68305 | 25024 ft | 441 kts | 101° |
| 2026-05-06 18:15 | 53.15568 | -111.63410 | 25368 ft | 443 kts | 101° |
| 2026-05-06 18:15 | 53.14712 | -111.58479 | 25701 ft | 445 kts | 101° |
| 2026-05-06 18:15 | 53.13852 | -111.53545 | 25998 ft | 447 kts | 101° |
| 2026-05-06 18:15 | 53.12980 | -111.48560 | 26303 ft | 450 kts | 101° |
| 2026-05-06 18:16 | 53.12106 | -111.43565 | 26590 ft | 452 kts | 101° |
| 2026-05-06 18:16 | 53.11237 | -111.38618 | 26887 ft | 454 kts | 101° |
| 2026-05-06 18:16 | 53.10345 | -111.33559 | 27171 ft | 456 kts | 102° |
| 2026-05-06 18:16 | 53.09452 | -111.28507 | 27438 ft | 458 kts | 101° |
| 2026-05-06 18:17 | 53.08557 | -111.23466 | 27680 ft | 461 kts | 101° |
| 2026-05-06 18:17 | 53.07647 | -111.18347 | 27922 ft | 463 kts | 101° |
| 2026-05-06 18:17 | 53.06724 | -111.13180 | 28184 ft | 465 kts | 101° |
| 2026-05-06 18:17 | 53.05816 | -111.08096 | 28419 ft | 467 kts | 101° |
| 2026-05-06 18:18 | 53.04885 | -111.02896 | 28656 ft | 469 kts | 101° |
| 2026-05-06 18:18 | 53.03954 | -110.97719 | 28903 ft | 471 kts | 101° |
| 2026-05-06 18:18 | 53.03022 | -110.92554 | 29140 ft | 473 kts | 101° |
| 2026-05-06 18:18 | 53.02075 | -110.87318 | 29372 ft | 474 kts | 101° |
| 2026-05-06 18:19 | 53.01121 | -110.82061 | 29575 ft | 477 kts | 100° |
| 2026-05-06 18:19 | 53.00165 | -110.76809 | 29798 ft | 478 kts | 100° |
| 2026-05-06 18:19 | 52.99199 | -110.71511 | 29985 ft | 481 kts | 100° |
| 2026-05-06 18:19 | 52.98235 | -110.66240 | 30192 ft | 483 kts | 100° |
| 2026-05-06 18:20 | 52.97261 | -110.60922 | 30407 ft | 484 kts | 100° |
| 2026-05-06 18:20 | 52.96285 | -110.55613 | 30602 ft | 486 kts | 100° |
| 2026-05-06 18:20 | 52.95304 | -110.50294 | 30814 ft | 488 kts | 100° |
| 2026-05-06 18:20 | 52.94311 | -110.44926 | 31013 ft | 489 kts | 100° |
| 2026-05-06 18:21 | 52.93307 | -110.39525 | 31220 ft | 491 kts | 100° |
| 2026-05-06 18:21 | 52.92299 | -110.34123 | 31446 ft | 491 kts | 101° |
| 2026-05-06 18:21 | 52.91302 | -110.28786 | 31724 ft | 490 kts | 101° |
| 2026-05-06 18:21 | 52.90298 | -110.23419 | 31990 ft | 490 kts | 101° |
| 2026-05-06 18:22 | 52.89285 | -110.18027 | 32258 ft | 488 kts | 100° |
| 2026-05-06 18:22 | 52.88283 | -110.12713 | 32463 ft | 488 kts | 100° |
| 2026-05-06 18:22 | 52.87270 | -110.07346 | 32652 ft | 488 kts | 100° |
| 2026-05-06 18:22 | 52.86258 | -110.01991 | 32825 ft | 489 kts | 100° |
| 2026-05-06 18:23 | 52.85243 | -109.96646 | 33052 ft | 488 kts | 100° |
| 2026-05-06 18:23 | 52.84237 | -109.91354 | 33241 ft | 488 kts | 100° |
| 2026-05-06 18:23 | 52.83215 | -109.86004 | 33385 ft | 489 kts | 100° |
| 2026-05-06 18:23 | 52.82200 | -109.80697 | 33543 ft | 489 kts | 100° |
| 2026-05-06 18:24 | 52.81171 | -109.75339 | 33698 ft | 490 kts | 99° |
| 2026-05-06 18:24 | 52.80140 | -109.69988 | 33848 ft | 490 kts | 100° |
| 2026-05-06 18:24 | 52.79111 | -109.64659 | 33986 ft | 491 kts | 100° |
| 2026-05-06 18:24 | 52.78069 | -109.59272 | 34091 ft | 492 kts | 99° |
| 2026-05-06 18:25 | 52.77034 | -109.53945 | 34226 ft | 492 kts | 99° |
| 2026-05-06 18:25 | 52.75985 | -109.48559 | 34366 ft | 493 kts | 99° |
| 2026-05-06 18:25 | 52.73895 | -109.37872 | 34562 ft | 494 kts | 99° |
| 2026-05-06 18:26 | 52.71782 | -109.27106 | 34737 ft | 495 kts | 100° |
| 2026-05-06 18:26 | 52.70716 | -109.21710 | 34838 ft | 495 kts | 100° |
| 2026-05-06 18:26 | 52.69648 | -109.16318 | 34949 ft | 495 kts | 100° |
| 2026-05-06 18:27 | 52.67512 | -109.05579 | 34966 ft | 496 kts | 100° |
| 2026-05-06 18:27 | 52.65361 | -108.94830 | 34967 ft | 496 kts | 100° |
| 2026-05-06 18:28 | 52.63201 | -108.84077 | 34972 ft | 496 kts | 100° |
| 2026-05-06 18:28 | 52.61032 | -108.73340 | 34973 ft | 496 kts | 101° |
| 2026-05-06 18:29 | 52.58861 | -108.62652 | 34976 ft | 496 kts | 101° |
| 2026-05-06 18:29 | 52.56678 | -108.51977 | 34981 ft | 496 kts | 101° |
| 2026-05-06 18:30 | 52.54485 | -108.41306 | 34980 ft | 495 kts | 101° |
| 2026-05-06 18:30 | 52.52277 | -108.30606 | 34975 ft | 495 kts | 102° |
| 2026-05-06 18:31 | 52.50064 | -108.19946 | 34971 ft | 496 kts | 102° |
| 2026-05-06 18:31 | 52.47842 | -108.09309 | 34975 ft | 494 kts | 102° |
| 2026-05-06 18:32 | 52.45624 | -107.98747 | 34969 ft | 494 kts | 102° |
| 2026-05-06 18:32 | 52.43382 | -107.88118 | 34972 ft | 494 kts | 102° |
| 2026-05-06 18:33 | 52.41144 | -107.77563 | 34977 ft | 494 kts | 102° |
| 2026-05-06 18:33 | 52.38884 | -107.66963 | 34982 ft | 493 kts | 102° |
| 2026-05-06 18:34 | 52.36627 | -107.56427 | 34984 ft | 494 kts | 102° |
| 2026-05-06 18:34 | 52.34352 | -107.45864 | 34983 ft | 495 kts | 101° |
| 2026-05-06 18:35 | 52.32068 | -107.35311 | 34987 ft | 496 kts | 102° |
| 2026-05-06 18:35 | 52.29760 | -107.24705 | 34991 ft | 495 kts | 102° |
| 2026-05-06 18:36 | 52.27449 | -107.14146 | 34999 ft | 495 kts | 102° |
| 2026-05-06 18:36 | 52.25132 | -107.03601 | 35004 ft | 495 kts | 102° |
| 2026-05-06 18:37 | 52.23202 | -106.94853 | 35011 ft | 495 kts | 102° |
| 2026-05-06 18:37 | 52.20484 | -106.82606 | 35013 ft | 497 kts | 102° |
| 2026-05-06 18:38 | 52.18131 | -106.72012 | 35024 ft | 495 kts | 100° |
| 2026-05-06 18:38 | 52.16048 | -106.61444 | 35027 ft | 492 kts | 99° |
| 2026-05-06 18:39 | 52.14002 | -106.50899 | 35030 ft | 493 kts | 99° |
| 2026-05-06 18:40 | 52.10879 | -106.34940 | 35030 ft | 493 kts | 99° |
| 2026-05-06 18:40 | 52.08795 | -106.24355 | 35014 ft | 495 kts | 99° |
| 2026-05-06 18:41 | 52.06698 | -106.13790 | 35007 ft | 496 kts | 100° |
| 2026-05-06 18:41 | 52.04573 | -106.03154 | 34985 ft | 494 kts | 99° |
| 2026-05-06 18:42 | 52.02452 | -105.92574 | 34994 ft | 497 kts | 99° |
| 2026-05-06 18:42 | 52.00309 | -105.81954 | 35009 ft | 495 kts | 99° |
| 2026-05-06 18:43 | 51.98174 | -105.71433 | 34995 ft | 493 kts | 99° |
| 2026-05-06 18:43 | 51.96033 | -105.60930 | 34989 ft | 494 kts | 99° |
| 2026-05-06 18:44 | 51.93864 | -105.50335 | 35006 ft | 495 kts | 99° |
| 2026-05-06 18:44 | 51.91695 | -105.39820 | 34992 ft | 494 kts | 98° |
| 2026-05-06 18:45 | 51.89525 | -105.29333 | 34995 ft | 495 kts | 99° |
| 2026-05-06 18:45 | 51.87329 | -105.18776 | 34994 ft | 495 kts | 99° |
| 2026-05-06 18:46 | 51.85133 | -105.08287 | 34993 ft | 496 kts | 99° |
| 2026-05-06 18:46 | 51.82922 | -104.97778 | 34977 ft | 496 kts | 99° |
| 2026-05-06 18:46 | 51.81814 | -104.92539 | 35082 ft | 495 kts | 99° |
| 2026-05-06 18:47 | 51.80699 | -104.87268 | 35089 ft | 496 kts | 99° |
| 2026-05-06 18:47 | 51.78469 | -104.76789 | 35020 ft | 493 kts | 99° |
| 2026-05-06 18:48 | 51.76247 | -104.66390 | 34974 ft | 493 kts | 99° |
| 2026-05-06 18:48 | 51.74017 | -104.55988 | 34968 ft | 493 kts | 99° |
| 2026-05-06 18:49 | 51.71770 | -104.45589 | 34984 ft | 492 kts | 100° |
| 2026-05-06 18:49 | 51.69516 | -104.35193 | 34984 ft | 493 kts | 100° |
| 2026-05-06 18:50 | 51.67254 | -104.24837 | 34978 ft | 492 kts | 101° |
| 2026-05-06 18:50 | 51.64986 | -104.14463 | 34980 ft | 494 kts | 101° |
| 2026-05-06 18:51 | 51.62698 | -104.04085 | 34982 ft | 496 kts | 101° |
| 2026-05-06 18:51 | 51.60395 | -103.93700 | 34979 ft | 492 kts | 101° |
| 2026-05-06 18:52 | 51.58097 | -103.83365 | 34983 ft | 492 kts | 101° |
| 2026-05-06 18:52 | 51.55793 | -103.73059 | 34979 ft | 491 kts | 102° |
| 2026-05-06 18:53 | 51.53494 | -103.62818 | 35000 ft | 491 kts | 102° |
| 2026-05-06 18:53 | 51.51163 | -103.52514 | 34986 ft | 491 kts | 102° |
| 2026-05-06 18:54 | 51.48853 | -103.42332 | 34972 ft | 489 kts | 102° |
| 2026-05-06 18:54 | 51.46530 | -103.32138 | 34978 ft | 488 kts | 103° |
| 2026-05-06 18:55 | 51.44195 | -103.21933 | 34987 ft | 491 kts | 103° |
| 2026-05-06 18:55 | 51.41846 | -103.11736 | 34983 ft | 489 kts | 103° |
| 2026-05-06 18:56 | 51.39487 | -103.01547 | 34981 ft | 488 kts | 103° |
| 2026-05-06 18:56 | 51.37128 | -102.91386 | 35002 ft | 488 kts | 103° |
| 2026-05-06 18:57 | 51.34768 | -102.81268 | 34996 ft | 489 kts | 103° |
| 2026-05-06 18:57 | 51.32383 | -102.71114 | 34996 ft | 489 kts | 103° |
| 2026-05-06 18:58 | 51.30003 | -102.60998 | 35004 ft | 489 kts | 104° |
| 2026-05-06 18:58 | 51.27592 | -102.50833 | 35028 ft | 487 kts | 103° |
| 2026-05-06 18:59 | 51.25348 | -102.40725 | 35021 ft | 484 kts | 101° |
| 2026-05-06 18:59 | 51.23245 | -102.30550 | 35017 ft | 484 kts | 102° |
| 2026-05-06 19:00 | 51.21140 | -102.20390 | 35000 ft | 484 kts | 102° |
| 2026-05-06 19:00 | 51.19027 | -102.10260 | 34996 ft | 484 kts | 102° |
| 2026-05-06 19:01 | 51.16910 | -102.00167 | 34998 ft | 483 kts | 103° |
| 2026-05-06 19:01 | 51.14785 | -101.90101 | 35003 ft | 482 kts | 103° |
| 2026-05-06 19:02 | 51.12651 | -101.80029 | 34999 ft | 482 kts | 103° |
| 2026-05-06 19:02 | 51.10502 | -101.69941 | 34995 ft | 482 kts | 103° |
| 2026-05-06 19:03 | 51.08355 | -101.59905 | 34987 ft | 482 kts | 103° |
| 2026-05-06 19:03 | 51.06187 | -101.49827 | 34984 ft | 481 kts | 103° |
| 2026-05-06 19:04 | 51.04028 | -101.39835 | 34978 ft | 482 kts | 103° |
| 2026-05-06 19:04 | 51.01851 | -101.29817 | 34975 ft | 482 kts | 104° |
| 2026-05-06 19:05 | 50.99668 | -101.19813 | 34965 ft | 481 kts | 104° |
| 2026-05-06 19:05 | 50.97466 | -101.09779 | 34964 ft | 481 kts | 104° |
| 2026-05-06 19:06 | 50.95276 | -100.99844 | 34960 ft | 481 kts | 104° |
| 2026-05-06 19:06 | 50.93061 | -100.89844 | 34959 ft | 481 kts | 104° |
| 2026-05-06 19:07 | 50.90841 | -100.79868 | 34957 ft | 481 kts | 105° |
| 2026-05-06 19:07 | 50.88628 | -100.69968 | 34957 ft | 480 kts | 105° |
| 2026-05-06 19:08 | 50.86401 | -100.60058 | 34958 ft | 480 kts | 105° |
| 2026-05-06 19:08 | 50.84161 | -100.50139 | 34956 ft | 480 kts | 105° |
| 2026-05-06 19:09 | 50.81916 | -100.40235 | 34956 ft | 479 kts | 105° |
| 2026-05-06 19:09 | 50.79675 | -100.30396 | 34957 ft | 480 kts | 105° |
| 2026-05-06 19:10 | 50.77407 | -100.20482 | 34953 ft | 480 kts | 106° |
| 2026-05-06 19:10 | 50.75146 | -100.10651 | 34949 ft | 479 kts | 106° |
| 2026-05-06 19:11 | 50.72863 | -100.00774 | 34941 ft | 479 kts | 106° |
| 2026-05-06 19:11 | 50.70588 | -99.90974 | 34942 ft | 479 kts | 106° |
| 2026-05-06 19:12 | 50.68291 | -99.81122 | 34944 ft | 478 kts | 106° |
| 2026-05-06 19:12 | 50.65995 | -99.71318 | 34946 ft | 477 kts | 106° |
| 2026-05-06 19:13 | 50.63699 | -99.61560 | 34960 ft | 477 kts | 106° |
| 2026-05-06 19:13 | 50.61404 | -99.51850 | 34977 ft | 477 kts | 107° |
| 2026-05-06 19:14 | 50.59091 | -99.42107 | 34989 ft | 477 kts | 107° |
| 2026-05-06 19:14 | 50.56771 | -99.32375 | 34997 ft | 477 kts | 107° |
| 2026-05-06 19:15 | 50.54434 | -99.22626 | 35001 ft | 477 kts | 107° |
| 2026-05-06 19:15 | 50.52103 | -99.12945 | 35004 ft | 476 kts | 107° |
| 2026-05-06 19:16 | 50.49750 | -99.03203 | 35006 ft | 476 kts | 108° |
| 2026-05-06 19:16 | 50.47420 | -98.93597 | 35007 ft | 475 kts | 108° |
| 2026-05-06 19:17 | 50.45053 | -98.83890 | 35008 ft | 475 kts | 108° |
| 2026-05-06 19:17 | 50.42710 | -98.74278 | 35010 ft | 475 kts | 106° |
| 2026-05-06 19:18 | 50.40744 | -98.64463 | 35013 ft | 473 kts | 103° |
| 2026-05-06 19:18 | 50.38924 | -98.54636 | 35015 ft | 473 kts | 103° |
| 2026-05-06 19:19 | 50.37088 | -98.44775 | 35019 ft | 473 kts | 103° |
| 2026-05-06 19:19 | 50.35242 | -98.34930 | 35021 ft | 473 kts | 104° |
| 2026-05-06 19:20 | 50.33381 | -98.25073 | 35021 ft | 473 kts | 104° |
| 2026-05-06 19:20 | 50.31519 | -98.15263 | 35027 ft | 473 kts | 104° |
| 2026-05-06 19:21 | 50.29637 | -98.05389 | 35028 ft | 473 kts | 104° |
| 2026-05-06 19:21 | 50.27759 | -97.95590 | 35028 ft | 472 kts | 104° |
| 2026-05-06 19:22 | 50.25874 | -97.85808 | 35031 ft | 472 kts | 104° |
| 2026-05-06 19:22 | 50.23986 | -97.76069 | 35027 ft | 472 kts | 104° |
| 2026-05-06 19:23 | 50.22091 | -97.66336 | 35023 ft | 472 kts | 104° |
| 2026-05-06 19:23 | 50.20171 | -97.56531 | 35022 ft | 473 kts | 104° |
| 2026-05-06 19:24 | 50.18247 | -97.46742 | 35023 ft | 473 kts | 104° |
| 2026-05-06 19:24 | 50.16317 | -97.36980 | 35025 ft | 472 kts | 104° |
| 2026-05-06 19:25 | 50.14395 | -97.27302 | 35018 ft | 472 kts | 105° |
| 2026-05-06 19:25 | 50.12448 | -97.17557 | 35024 ft | 471 kts | 105° |
| 2026-05-06 19:26 | 50.10496 | -97.07831 | 35020 ft | 471 kts | 105° |
| 2026-05-06 19:26 | 50.08535 | -96.98109 | 35022 ft | 472 kts | 105° |
| 2026-05-06 19:27 | 50.06576 | -96.88439 | 35016 ft | 472 kts | 105° |
| 2026-05-06 19:27 | 50.04600 | -96.78735 | 35010 ft | 472 kts | 105° |
| 2026-05-06 19:28 | 50.02618 | -96.69055 | 35002 ft | 472 kts | 105° |
| 2026-05-06 19:28 | 50.00620 | -96.59344 | 35001 ft | 472 kts | 105° |
| 2026-05-06 19:29 | 49.98617 | -96.49655 | 34998 ft | 472 kts | 105° |
| 2026-05-06 19:29 | 49.96611 | -96.39997 | 34994 ft | 472 kts | 105° |
| 2026-05-06 19:30 | 49.94593 | -96.30325 | 34991 ft | 472 kts | 106° |
| 2026-05-06 19:30 | 49.92579 | -96.20721 | 34987 ft | 472 kts | 106° |
| 2026-05-06 19:31 | 49.90538 | -96.11034 | 34985 ft | 473 kts | 106° |
| 2026-05-06 19:31 | 49.87470 | -95.96555 | 34983 ft | 474 kts | 106° |
| 2026-05-06 19:32 | 49.85412 | -95.86909 | 34982 ft | 474 kts | 106° |
| 2026-05-06 19:32 | 49.83351 | -95.77294 | 34977 ft | 474 kts | 106° |
| 2026-05-06 19:33 | 49.81272 | -95.67638 | 34975 ft | 473 kts | 106° |
| 2026-05-06 19:33 | 49.79190 | -95.58010 | 34975 ft | 473 kts | 106° |
| 2026-05-06 19:34 | 49.77108 | -95.48423 | 34970 ft | 472 kts | 106° |
| 2026-05-06 19:34 | 49.75026 | -95.38882 | 34965 ft | 472 kts | 106° |
| 2026-05-06 19:35 | 49.72915 | -95.29260 | 34969 ft | 472 kts | 107° |
| 2026-05-06 19:35 | 49.70800 | -95.19661 | 34969 ft | 472 kts | 107° |
| 2026-05-06 19:36 | 49.68692 | -95.10139 | 34965 ft | 473 kts | 107° |
| 2026-05-06 19:36 | 49.66560 | -95.00550 | 34959 ft | 474 kts | 107° |
| 2026-05-06 19:37 | 49.64423 | -94.90985 | 34962 ft | 474 kts | 107° |
| 2026-05-06 19:37 | 49.62631 | -94.82993 | 34959 ft | 473 kts | 107° |
| 2026-05-06 19:38 | 49.60122 | -94.71860 | 34964 ft | 473 kts | 107° |
| 2026-05-06 19:38 | 49.57968 | -94.62345 | 34964 ft | 473 kts | 107° |
| 2026-05-06 19:39 | 49.55793 | -94.52783 | 34968 ft | 473 kts | 107° |
| 2026-05-06 19:39 | 49.53625 | -94.43300 | 34965 ft | 473 kts | 107° |
| 2026-05-06 19:40 | 49.51441 | -94.33785 | 34969 ft | 473 kts | 108° |
| 2026-05-06 19:40 | 49.49252 | -94.24290 | 34967 ft | 473 kts | 108° |
| 2026-05-06 19:41 | 49.47058 | -94.14809 | 34961 ft | 473 kts | 108° |
| 2026-05-06 19:41 | 49.44842 | -94.05282 | 34958 ft | 472 kts | 108° |
| 2026-05-06 19:42 | 49.42639 | -93.95850 | 34954 ft | 473 kts | 108° |
| 2026-05-06 19:42 | 49.40408 | -93.86343 | 34954 ft | 473 kts | 108° |
| 2026-05-06 19:43 | 49.38173 | -93.76868 | 34955 ft | 473 kts | 108° |
| 2026-05-06 19:43 | 49.35949 | -93.67470 | 34954 ft | 473 kts | 108° |
| 2026-05-06 19:44 | 49.33705 | -93.58028 | 34950 ft | 473 kts | 108° |
| 2026-05-06 19:44 | 49.31454 | -93.48597 | 34947 ft | 472 kts | 108° |
| 2026-05-06 19:45 | 49.29201 | -93.39208 | 34937 ft | 472 kts | 108° |
| 2026-05-06 19:45 | 49.26929 | -93.29771 | 34934 ft | 473 kts | 109° |
| 2026-05-06 19:46 | 49.24652 | -93.20358 | 34934 ft | 473 kts | 109° |
| 2026-05-06 19:46 | 49.22365 | -93.10941 | 34938 ft | 473 kts | 109° |
| 2026-05-06 19:47 | 49.20084 | -93.01591 | 34941 ft | 472 kts | 109° |
| 2026-05-06 19:47 | 49.17786 | -92.92213 | 34942 ft | 472 kts | 109° |
| 2026-05-06 19:48 | 49.15495 | -92.82896 | 34934 ft | 472 kts | 109° |
| 2026-05-06 19:48 | 49.13184 | -92.73542 | 34930 ft | 472 kts | 109° |
| 2026-05-06 19:49 | 49.10866 | -92.64199 | 34927 ft | 472 kts | 109° |
| 2026-05-06 19:49 | 49.08543 | -92.54874 | 34923 ft | 473 kts | 109° |
| 2026-05-06 19:50 | 49.06206 | -92.45532 | 34923 ft | 473 kts | 109° |
| 2026-05-06 19:50 | 49.03859 | -92.36193 | 34918 ft | 473 kts | 109° |
| 2026-05-06 19:51 | 49.01521 | -92.26922 | 34913 ft | 473 kts | 110° |
| 2026-05-06 19:51 | 48.99152 | -92.17567 | 34906 ft | 473 kts | 110° |
| 2026-05-06 19:52 | 48.96787 | -92.08263 | 34902 ft | 473 kts | 110° |
| 2026-05-06 19:52 | 48.94418 | -91.98991 | 34905 ft | 472 kts | 110° |
| 2026-05-06 19:53 | 48.92034 | -91.89700 | 34900 ft | 473 kts | 110° |
| 2026-05-06 19:53 | 48.89644 | -91.80414 | 34898 ft | 473 kts | 110° |
| 2026-05-06 19:54 | 48.87257 | -91.71178 | 34895 ft | 473 kts | 110° |
| 2026-05-06 19:54 | 48.84856 | -91.61925 | 34895 ft | 473 kts | 111° |
| 2026-05-06 19:55 | 48.82433 | -91.52628 | 34892 ft | 473 kts | 111° |
| 2026-05-06 19:55 | 48.80018 | -91.43404 | 34888 ft | 473 kts | 111° |
| 2026-05-06 19:56 | 48.77587 | -91.34155 | 34891 ft | 473 kts | 111° |
| 2026-05-06 19:56 | 48.75161 | -91.24953 | 34892 ft | 473 kts | 111° |
| 2026-05-06 19:57 | 48.72723 | -91.15741 | 34890 ft | 473 kts | 111° |
| 2026-05-06 19:57 | 48.70275 | -91.06535 | 34883 ft | 473 kts | 112° |
| 2026-05-06 19:58 | 48.67820 | -90.97343 | 34886 ft | 473 kts | 112° |
| 2026-05-06 19:58 | 48.65357 | -90.88154 | 34890 ft | 473 kts | 112° |
| 2026-05-06 19:59 | 48.62884 | -90.78964 | 34889 ft | 474 kts | 112° |
| 2026-05-06 19:59 | 48.60406 | -90.69788 | 34887 ft | 474 kts | 112° |
| 2026-05-06 20:00 | 48.57909 | -90.60577 | 34888 ft | 473 kts | 112° |
| 2026-05-06 20:00 | 48.55426 | -90.51457 | 34886 ft | 473 kts | 112° |
| 2026-05-06 20:01 | 48.52917 | -90.42275 | 34884 ft | 474 kts | 112° |
| 2026-05-06 20:01 | 48.50404 | -90.33116 | 34881 ft | 474 kts | 113° |
| 2026-05-06 20:02 | 48.47899 | -90.24017 | 34878 ft | 474 kts | 113° |
| 2026-05-06 20:02 | 48.45377 | -90.14900 | 34878 ft | 474 kts | 113° |
| 2026-05-06 20:03 | 48.42829 | -90.05721 | 34871 ft | 474 kts | 113° |
| 2026-05-06 20:03 | 48.40288 | -89.96600 | 34866 ft | 474 kts | 113° |
| 2026-05-06 20:04 | 48.37740 | -89.87486 | 34863 ft | 474 kts | 113° |
| 2026-05-06 20:04 | 48.35196 | -89.78423 | 34868 ft | 474 kts | 113° |
| 2026-05-06 20:05 | 48.32639 | -89.69346 | 34872 ft | 475 kts | 113° |
| 2026-05-06 20:05 | 48.30068 | -89.60253 | 34880 ft | 475 kts | 113° |
| 2026-05-06 20:06 | 48.27469 | -89.51096 | 34894 ft | 475 kts | 113° |
| 2026-05-06 20:06 | 48.24865 | -89.41962 | 34907 ft | 475 kts | 113° |
| 2026-05-06 20:07 | 48.22289 | -89.32914 | 34906 ft | 475 kts | 114° |
| 2026-05-06 20:07 | 48.19692 | -89.23810 | 34912 ft | 475 kts | 114° |
| 2026-05-06 20:08 | 48.17099 | -89.14753 | 34918 ft | 475 kts | 114° |
| 2026-05-06 20:08 | 48.14481 | -89.05645 | 34916 ft | 475 kts | 114° |
| 2026-05-06 20:09 | 48.11871 | -88.96595 | 34921 ft | 476 kts | 114° |
| 2026-05-06 20:09 | 48.09238 | -88.87502 | 34921 ft | 476 kts | 114° |
| 2026-05-06 20:10 | 48.06612 | -88.78468 | 34912 ft | 476 kts | 114° |
| 2026-05-06 20:10 | 48.03979 | -88.69442 | 34905 ft | 476 kts | 114° |
| 2026-05-06 20:11 | 48.01330 | -88.60397 | 34905 ft | 476 kts | 114° |
| 2026-05-06 20:11 | 47.98683 | -88.51393 | 34914 ft | 476 kts | 114° |
| 2026-05-06 20:12 | 47.96014 | -88.42343 | 34918 ft | 476 kts | 114° |
| 2026-05-06 20:12 | 47.93356 | -88.33363 | 34917 ft | 476 kts | 115° |
| 2026-05-06 20:13 | 47.90688 | -88.24384 | 34921 ft | 477 kts | 115° |
| 2026-05-06 20:13 | 47.87987 | -88.15334 | 34926 ft | 477 kts | 115° |
| 2026-05-06 20:14 | 47.85271 | -88.06258 | 34924 ft | 478 kts | 115° |
| 2026-05-06 20:14 | 47.82581 | -87.97303 | 34924 ft | 478 kts | 115° |
| 2026-05-06 20:15 | 47.79862 | -87.88288 | 34928 ft | 478 kts | 115° |
| 2026-05-06 20:15 | 47.77116 | -87.79213 | 34926 ft | 478 kts | 115° |
| 2026-05-06 20:16 | 47.74407 | -87.70293 | 34928 ft | 478 kts | 115° |
| 2026-05-06 20:16 | 47.71663 | -87.61289 | 34926 ft | 478 kts | 115° |
| 2026-05-06 20:17 | 47.68936 | -87.52380 | 34926 ft | 478 kts | 115° |
| 2026-05-06 20:17 | 47.66179 | -87.43401 | 34922 ft | 479 kts | 116° |
| 2026-05-06 20:18 | 47.63386 | -87.34334 | 34923 ft | 479 kts | 116° |
| 2026-05-06 20:18 | 47.60633 | -87.25430 | 34922 ft | 479 kts | 116° |
| 2026-05-06 20:19 | 47.57850 | -87.16465 | 34923 ft | 479 kts | 116° |
| 2026-05-06 20:19 | 47.55049 | -87.07474 | 34926 ft | 479 kts | 116° |
| 2026-05-06 20:20 | 47.52250 | -86.98518 | 34923 ft | 479 kts | 117° |
| 2026-05-06 20:20 | 47.49445 | -86.89575 | 34922 ft | 479 kts | 117° |
| 2026-05-06 20:21 | 47.46639 | -86.80665 | 34928 ft | 480 kts | 117° |
| 2026-05-06 20:21 | 47.43837 | -86.71792 | 34931 ft | 480 kts | 117° |
| 2026-05-06 20:22 | 47.41013 | -86.62886 | 34928 ft | 481 kts | 117° |
| 2026-05-06 20:22 | 47.38178 | -86.53975 | 34928 ft | 481 kts | 117° |
| 2026-05-06 20:23 | 47.35327 | -86.45046 | 34933 ft | 481 kts | 117° |
| 2026-05-06 20:23 | 47.32481 | -86.36159 | 34932 ft | 481 kts | 117° |
| 2026-05-06 20:24 | 47.29628 | -86.27284 | 34930 ft | 481 kts | 118° |
| 2026-05-06 20:24 | 47.26762 | -86.18404 | 34932 ft | 481 kts | 118° |
| 2026-05-06 20:25 | 47.23899 | -86.09560 | 34932 ft | 482 kts | 118° |
| 2026-05-06 20:25 | 47.21014 | -86.00679 | 34937 ft | 482 kts | 118° |
| 2026-05-06 20:26 | 47.18116 | -85.91791 | 34940 ft | 483 kts | 118° |
| 2026-05-06 20:26 | 47.15216 | -85.82924 | 34940 ft | 483 kts | 118° |
| 2026-05-06 20:27 | 47.12304 | -85.74053 | 34944 ft | 483 kts | 118° |
| 2026-05-06 20:27 | 47.09390 | -85.65206 | 34939 ft | 483 kts | 118° |
| 2026-05-06 20:28 | 47.06459 | -85.56337 | 34942 ft | 484 kts | 118° |
| 2026-05-06 20:28 | 47.03531 | -85.47513 | 34940 ft | 484 kts | 118° |
| 2026-05-06 20:29 | 47.00587 | -85.38660 | 34944 ft | 484 kts | 119° |
| 2026-05-06 20:29 | 46.97638 | -85.29826 | 34945 ft | 484 kts | 120° |
| 2026-05-06 20:30 | 46.93205 | -85.16617 | 34946 ft | 485 kts | 120° |
| 2026-05-06 20:31 | 46.90225 | -85.07765 | 34949 ft | 485 kts | 120° |
| 2026-05-06 20:31 | 46.87247 | -84.98952 | 34947 ft | 486 kts | 120° |
| 2026-05-06 20:32 | 46.84243 | -84.90092 | 34947 ft | 487 kts | 120° |
| 2026-05-06 20:32 | 46.81237 | -84.81252 | 34945 ft | 487 kts | 120° |
| 2026-05-06 20:33 | 46.78233 | -84.72452 | 34943 ft | 487 kts | 120° |
| 2026-05-06 20:33 | 46.75224 | -84.63670 | 34943 ft | 487 kts | 120° |
| 2026-05-06 20:34 | 46.72177 | -84.54802 | 34944 ft | 487 kts | 120° |
| 2026-05-06 20:34 | 46.69154 | -84.46036 | 34944 ft | 488 kts | 120° |
| 2026-05-06 20:35 | 46.66096 | -84.37199 | 34940 ft | 488 kts | 120° |
| 2026-05-06 20:35 | 46.63062 | -84.28454 | 34940 ft | 487 kts | 121° |
| 2026-05-06 20:36 | 46.60006 | -84.19679 | 34935 ft | 487 kts | 121° |
| 2026-05-06 20:36 | 46.56937 | -84.10892 | 34930 ft | 488 kts | 121° |
| 2026-05-06 20:37 | 46.53877 | -84.02161 | 34915 ft | 488 kts | 122° |
| 2026-05-06 20:37 | 46.50802 | -83.93417 | 34904 ft | 488 kts | 122° |
| 2026-05-06 20:38 | 46.47708 | -83.84652 | 34902 ft | 489 kts | 122° |
| 2026-05-06 20:38 | 46.44608 | -83.75893 | 34902 ft | 490 kts | 122° |
| 2026-05-06 20:39 | 46.41447 | -83.67052 | 34896 ft | 489 kts | 123° |
| 2026-05-06 20:39 | 46.37857 | -83.58729 | 34901 ft | 483 kts | 130° |
| 2026-05-06 20:40 | 46.33979 | -83.50830 | 34902 ft | 484 kts | 130° |
| 2026-05-06 20:40 | 46.30058 | -83.42873 | 34904 ft | 483 kts | 130° |
| 2026-05-06 20:41 | 46.26162 | -83.34965 | 34904 ft | 483 kts | 131° |
| 2026-05-06 20:41 | 46.22282 | -83.27103 | 34898 ft | 483 kts | 131° |
| 2026-05-06 20:42 | 46.18383 | -83.19222 | 34896 ft | 483 kts | 131° |
| 2026-05-06 20:42 | 46.14474 | -83.11341 | 34900 ft | 484 kts | 131° |
| 2026-05-06 20:43 | 46.10545 | -83.03448 | 34903 ft | 485 kts | 131° |
| 2026-05-06 20:43 | 46.06613 | -82.95575 | 34895 ft | 485 kts | 132° |
| 2026-05-06 20:44 | 46.02662 | -82.87688 | 34896 ft | 485 kts | 132° |
| 2026-05-06 20:44 | 45.98716 | -82.79832 | 34903 ft | 485 kts | 132° |
| 2026-05-06 20:45 | 45.94770 | -82.71993 | 34901 ft | 486 kts | 132° |
| 2026-05-06 20:45 | 45.90821 | -82.64167 | 34902 ft | 486 kts | 132° |
| 2026-05-06 20:46 | 45.86857 | -82.56330 | 34915 ft | 487 kts | 132° |
| 2026-05-06 20:46 | 45.82872 | -82.48480 | 34908 ft | 486 kts | 132° |
| 2026-05-06 20:47 | 45.78901 | -82.40687 | 34906 ft | 487 kts | 133° |
| 2026-05-06 20:47 | 45.74915 | -82.32877 | 34903 ft | 487 kts | 133° |
| 2026-05-06 20:48 | 45.70935 | -82.25099 | 34906 ft | 486 kts | 134° |
| 2026-05-06 20:48 | 45.66913 | -82.17262 | 34892 ft | 488 kts | 134° |
| 2026-05-06 20:49 | 45.62882 | -82.09569 | 34896 ft | 484 kts | 136° |
| 2026-05-06 20:49 | 45.58402 | -82.02515 | 34908 ft | 477 kts | 144° |
| 2026-05-06 20:50 | 45.53584 | -81.96056 | 34908 ft | 477 kts | 145° |
| 2026-05-06 20:50 | 45.48745 | -81.89608 | 34907 ft | 476 kts | 145° |
| 2026-05-06 20:51 | 45.43916 | -81.83164 | 34915 ft | 476 kts | 146° |
| 2026-05-06 20:51 | 45.39117 | -81.76767 | 34913 ft | 475 kts | 145° |
| 2026-05-06 20:52 | 45.34297 | -81.70361 | 34925 ft | 476 kts | 146° |
| 2026-05-06 20:52 | 45.29452 | -81.63937 | 34923 ft | 475 kts | 146° |
| 2026-05-06 20:53 | 45.24623 | -81.57553 | 34918 ft | 476 kts | 146° |
| 2026-05-06 20:53 | 45.19781 | -81.51175 | 34939 ft | 476 kts | 146° |
| 2026-05-06 20:54 | 45.14949 | -81.44821 | 34938 ft | 475 kts | 146° |
| 2026-05-06 20:54 | 45.10115 | -81.38480 | 34941 ft | 477 kts | 146° |
| 2026-05-06 20:55 | 45.05265 | -81.32128 | 34937 ft | 476 kts | 146° |
| 2026-05-06 20:55 | 45.00398 | -81.25770 | 34942 ft | 476 kts | 146° |
| 2026-05-06 20:56 | 44.95541 | -81.19441 | 34933 ft | 476 kts | 146° |
| 2026-05-06 20:56 | 44.90681 | -81.13123 | 34929 ft | 476 kts | 146° |
| 2026-05-06 20:57 | 44.85822 | -81.06825 | 34947 ft | 476 kts | 146° |
| 2026-05-06 20:57 | 44.80964 | -81.00543 | 34939 ft | 477 kts | 146° |
| 2026-05-06 20:58 | 44.76081 | -80.94237 | 34931 ft | 477 kts | 146° |
| 2026-05-06 20:58 | 44.71199 | -80.87948 | 34929 ft | 477 kts | 146° |
| 2026-05-06 20:59 | 44.66313 | -80.81671 | 34927 ft | 477 kts | 146° |
| 2026-05-06 20:59 | 44.61417 | -80.75395 | 34919 ft | 477 kts | 146° |
| 2026-05-06 21:00 | 44.56532 | -80.69158 | 34916 ft | 477 kts | 146° |
| 2026-05-06 21:00 | 44.51615 | -80.62896 | 34910 ft | 478 kts | 146° |
| 2026-05-06 21:01 | 44.46720 | -80.56670 | 34905 ft | 478 kts | 146° |
| 2026-05-06 21:01 | 44.41812 | -80.50439 | 34901 ft | 478 kts | 146° |
| 2026-05-06 21:02 | 44.36899 | -80.44220 | 34895 ft | 478 kts | 146° |
| 2026-05-06 21:02 | 44.31973 | -80.37996 | 34887 ft | 479 kts | 146° |
| 2026-05-06 21:03 | 44.27039 | -80.31773 | 34882 ft | 478 kts | 147° |
| 2026-05-06 21:03 | 44.22082 | -80.25537 | 34886 ft | 478 kts | 147° |
| 2026-05-06 21:04 | 44.17173 | -80.19375 | 34888 ft | 477 kts | 147° |
| 2026-05-06 21:04 | 44.12223 | -80.13176 | 34887 ft | 478 kts | 147° |
| 2026-05-06 21:05 | 44.07283 | -80.06988 | 34895 ft | 479 kts | 147° |
| 2026-05-06 21:05 | 44.02355 | -80.00835 | 34898 ft | 478 kts | 147° |
| 2026-05-06 21:05 | 43.99829 | -79.97983 | 34894 ft | 458 kts | 152° |
| 2026-05-06 21:06 | 43.97295 | -79.95328 | 34895 ft | 451 kts | 153° |
| 2026-05-06 21:06 | 43.92274 | -79.90173 | 34891 ft | 450 kts | 153° |
| 2026-05-06 21:07 | 43.87286 | -79.85008 | 34877 ft | 442 kts | 153° |
| 2026-05-06 21:07 | 43.84882 | -79.82494 | 34879 ft | 427 kts | 153° |
| 2026-05-06 21:07 | 43.82539 | -79.80056 | 34890 ft | 419 kts | 153° |
| 2026-05-06 21:08 | 43.77887 | -79.75257 | 34894 ft | 417 kts | 154° |
| 2026-05-06 21:08 | 43.75503 | -79.73071 | 34876 ft | 401 kts | 168° |
| 2026-05-06 21:08 | 43.72915 | -79.72184 | 34885 ft | 368 kts | 192° |
| 2026-05-06 21:08 | 43.70533 | -79.72826 | 34894 ft | 337 kts | 216° |
| 2026-05-06 21:09 | 43.68790 | -79.74722 | 34900 ft | 318 kts | 239° |
| 2026-05-06 21:09 | 43.67948 | -79.77477 | 34906 ft | 312 kts | 259° |
| 2026-05-06 21:09 | 43.67569 | -79.80432 | 34902 ft | 312 kts | 252° |
| 2026-05-06 21:09 | 43.66625 | -79.83127 | 34905 ft | 317 kts | 240° |
| 2026-05-06 21:10 | 43.65313 | -79.85591 | 34902 ft | 319 kts | 236° |
| 2026-05-06 21:10 | 43.62441 | -79.90128 | 34151 ft | 315 kts | 233° |
| 2026-05-06 21:10 | 43.60954 | -79.92342 | 33195 ft | 323 kts | 232° |
| 2026-05-06 21:11 | 43.59420 | -79.94591 | 32230 ft | 330 kts | 232° |
| 2026-05-06 21:11 | 43.57856 | -79.96854 | 31456 ft | 326 kts | 232° |
| 2026-05-06 21:11 | 43.56283 | -79.99118 | 30799 ft | 317 kts | 231° |
| 2026-05-06 21:11 | 43.54784 | -80.01269 | 30076 ft | 310 kts | 231° |
| 2026-05-06 21:12 | 43.53320 | -80.03374 | 29206 ft | 305 kts | 231° |
| 2026-05-06 21:12 | 43.51860 | -80.05469 | 28315 ft | 302 kts | 231° |
| 2026-05-06 21:12 | 43.50605 | -80.07683 | 27405 ft | 294 kts | 245° |
| 2026-05-06 21:12 | 43.49941 | -80.10291 | 26524 ft | 290 kts | 258° |
| 2026-05-06 21:13 | 43.49892 | -80.13035 | 25618 ft | 294 kts | 274° |
| 2026-05-06 21:13 | 43.50501 | -80.15739 | 24728 ft | 302 kts | 290° |
| 2026-05-06 21:13 | 43.51757 | -80.18086 | 23863 ft | 316 kts | 308° |
| 2026-05-06 21:13 | 43.53634 | -80.19796 | 23041 ft | 334 kts | 328° |
| 2026-05-06 21:14 | 43.55928 | -80.20483 | 22246 ft | 354 kts | 351° |
| 2026-05-06 21:14 | 43.58402 | -80.19880 | 21464 ft | 372 kts | 17° |
| 2026-05-06 21:14 | 43.60572 | -80.17913 | 20772 ft | 380 kts | 40° |
| 2026-05-06 21:14 | 43.62414 | -80.15334 | 20096 ft | 376 kts | 43° |
| 2026-05-06 21:15 | 43.64177 | -80.12736 | 19411 ft | 372 kts | 43° |
| 2026-05-06 21:15 | 43.65952 | -80.10157 | 18758 ft | 366 kts | 43° |
| 2026-05-06 21:15 | 43.67660 | -80.07644 | 18112 ft | 363 kts | 50° |
| 2026-05-06 21:15 | 43.68813 | -80.04609 | 17439 ft | 361 kts | 78° |
| 2026-05-06 21:16 | 43.68972 | -80.01235 | 16827 ft | 347 kts | 105° |
| 2026-05-06 21:16 | 43.68223 | -79.98205 | 16179 ft | 328 kts | 129° |
| 2026-05-06 21:16 | 43.66801 | -79.95875 | 15510 ft | 308 kts | 151° |
| 2026-05-06 21:16 | 43.65036 | -79.94457 | 14824 ft | 291 kts | 170° |
| 2026-05-06 21:17 | 43.63114 | -79.93904 | 14148 ft | 275 kts | 187° |
| 2026-05-06 21:17 | 43.61271 | -79.94167 | 13525 ft | 261 kts | 203° |
| 2026-05-06 21:17 | 43.59647 | -79.95073 | 12913 ft | 250 kts | 217° |
| 2026-05-06 21:17 | 43.58308 | -79.96484 | 12296 ft | 243 kts | 229° |
| 2026-05-06 21:18 | 43.57117 | -79.98133 | 11653 ft | 241 kts | 229° |
| 2026-05-06 21:18 | 43.55942 | -79.99777 | 11011 ft | 241 kts | 229° |
| 2026-05-06 21:18 | 43.54784 | -80.01392 | 10376 ft | 239 kts | 229° |
| 2026-05-06 21:18 | 43.53617 | -80.03014 | 9742 ft | 238 kts | 229° |
| 2026-05-06 21:19 | 43.52423 | -80.04585 | 9098 ft | 240 kts | 219° |
| 2026-05-06 21:19 | 43.50850 | -80.05349 | 8378 ft | 254 kts | 185° |
| 2026-05-06 21:19 | 43.49100 | -80.04823 | 7760 ft | 262 kts | 156° |
| 2026-05-06 21:19 | 43.47686 | -80.03248 | 7131 ft | 267 kts | 127° |
| 2026-05-06 21:20 | 43.46953 | -80.00938 | 6542 ft | 266 kts | 97° |
| 2026-05-06 21:20 | 43.46946 | -79.99301 | 6182 ft | 261 kts | 77° |
| 2026-05-06 21:20 | 43.47868 | -79.96346 | 5496 ft | 250 kts | 57° |
| 2026-05-06 21:20 | 43.48734 | -79.94283 | 5106 ft | 249 kts | 57° |
| 2026-05-06 21:21 | 43.49581 | -79.92227 | 4814 ft | 244 kts | 58° |
| 2026-05-06 21:21 | 43.50391 | -79.90211 | 4599 ft | 238 kts | 58° |
| 2026-05-06 21:21 | 43.51178 | -79.88216 | 4341 ft | 235 kts | 59° |
| 2026-05-06 21:21 | 43.51955 | -79.86226 | 4025 ft | 235 kts | 58° |
| 2026-05-06 21:22 | 43.52727 | -79.84241 | 3691 ft | 236 kts | 59° |
| 2026-05-06 21:22 | 43.53494 | -79.82259 | 3471 ft | 232 kts | 59° |
| 2026-05-06 21:22 | 43.54225 | -79.80302 | 3200 ft | 231 kts | 58° |
| 2026-05-06 21:22 | 43.55081 | -79.78467 | 2993 ft | 224 kts | 49° |
| 2026-05-06 21:23 | 43.56054 | -79.76894 | 2977 ft | 209 kts | 43° |
| 2026-05-06 21:23 | 43.57027 | -79.75507 | 3008 ft | 194 kts | 41° |
| 2026-05-06 21:23 | 43.57945 | -79.74209 | 2925 ft | 183 kts | 41° |
| 2026-05-06 21:23 | 43.58787 | -79.72997 | 2677 ft | 170 kts | 42° |
| 2026-05-06 21:24 | 43.59577 | -79.71847 | 2419 ft | 158 kts | 43° |
| 2026-05-06 21:24 | 43.60299 | -79.70794 | 2196 ft | 144 kts | 43° |
| 2026-05-06 21:24 | 43.60959 | -79.69831 | 1988 ft | 133 kts | 43° |
| 2026-05-06 21:24 | 43.61589 | -79.68913 | 1829 ft | 132 kts | 43° |
| 2026-05-06 21:25 | 43.62224 | -79.67991 | 1663 ft | 132 kts | 43° |
| 2026-05-06 21:25 | 43.62853 | -79.67075 | 1494 ft | 131 kts | 43° |
| 2026-05-06 21:25 | 43.63481 | -79.66160 | 1318 ft | 131 kts | 44° |
| 2026-05-06 21:25 | 43.64106 | -79.65250 | 1141 ft | 131 kts | 44° |
| 2026-05-06 21:26 | 43.64732 | -79.64338 | 964 ft | 130 kts | 44° |
| 2026-05-06 21:26 | 43.65353 | -79.63429 | 802 ft | 130 kts | 44° |
| 2026-05-06 21:26 | 43.65977 | -79.62525 | 614 ft | 129 kts | 44° |
| 2026-05-06 21:26 | 43.66582 | -79.61642 | 546 ft | 117 kts | 44° |
| 2026-05-06 21:27 | 43.67028 | -79.61002 | 551 ft | 57 kts | 46° |
| 2026-05-06 21:27 | 43.67228 | -79.60712 | 552 ft | 26 kts | 45° |
| 2026-05-06 21:27 | 43.67318 | -79.60662 | 553 ft | 12 kts | 321° |
| 2026-05-06 21:27 | 43.67377 | -79.60737 | 556 ft | 10 kts | 317° |
| 2026-05-06 21:28 | 43.67388 | -79.60809 | 557 ft | 9 kts | 226° |
| 2026-05-06 21:28 | 43.67339 | -79.60880 | 557 ft | 11 kts | 226° |
| 2026-05-06 21:28 | 43.67280 | -79.60965 | 556 ft | 13 kts | 226° |
| 2026-05-06 21:28 | 43.67213 | -79.61063 | 555 ft | 14 kts | 227° |
| 2026-05-06 21:29 | 43.67204 | -79.61170 | 555 ft | 12 kts | 316° |
| 2026-05-06 21:29 | 43.67265 | -79.61246 | 557 ft | 11 kts | 318° |
| 2026-05-06 21:29 | 43.67321 | -79.61316 | 560 ft | 10 kts | 318° |
| 2026-05-06 21:29 | 43.67371 | -79.61383 | 561 ft | 10 kts | 315° |
| 2026-05-06 21:30 | 43.67422 | -79.61453 | 562 ft | 10 kts | 316° |
| 2026-05-06 21:30 | 43.67476 | -79.61522 | 563 ft | 10 kts | 317° |
| 2026-05-06 21:30 | 43.67531 | -79.61593 | 564 ft | 10 kts | 316° |
| 2026-05-06 21:30 | 43.67587 | -79.61665 | 565 ft | 11 kts | 317° |
| 2026-05-06 21:31 | 43.67645 | -79.61736 | 566 ft | 11 kts | 315° |
| 2026-05-06 21:31 | 43.67699 | -79.61811 | 567 ft | 11 kts | 315° |
| 2026-05-06 21:31 | 43.67756 | -79.61886 | 568 ft | 11 kts | 317° |
| 2026-05-06 21:31 | 43.67813 | -79.61961 | 570 ft | 11 kts | 316° |
| 2026-05-06 21:32 | 43.67871 | -79.62036 | 571 ft | 11 kts | 317° |
| 2026-05-06 21:32 | 43.67987 | -79.61979 | 573 ft | 11 kts | 73° |
| 2026-05-06 21:32 | 43.68024 | -79.61875 | 571 ft | 13 kts | 43° |
| 2026-05-06 21:33 | 43.68086 | -79.61789 | 572 ft | 6 kts | 47° |
| 2026-05-06 21:33 | 43.68110 | -79.61743 | 571 ft | 3 kts | 100° |
| 2026-05-06 21:33 | 43.68078 | -79.61700 | 571 ft | 8 kts | 135° |
| 2026-05-06 21:33 | 43.68060 | -79.61675 | 570 ft | 1 kts | 136° |
| 2026-05-06 21:34 | 43.68059 | -79.61674 | 570 ft | 0 kts | 136° |